createdAt,value
2023-11-01T00:02:31.794Z,6.07
2023-11-01T00:05:34.427Z,8.52
2023-11-01T00:08:36.530Z,6.18
2023-11-01T00:11:39.149Z,8.38
2023-11-01T00:14:41.653Z,8.68
2023-11-01T00:17:45.098Z,9.60
2023-11-01T00:20:47.547Z,6.40
2023-11-01T00:23:50.122Z,6.77
2023-11-01T00:26:52.169Z,5.95
2023-11-01T00:29:54.846Z,5.43
2023-11-01T00:32:57.071Z,6.23
2023-11-01T00:35:59.845Z,7.20
2023-11-01T00:39:01.915Z,6.00
2023-11-01T00:42:04.374Z,5.57
2023-11-01T00:45:06.881Z,6.00
2023-11-01T00:48:09.664Z,5.78
2023-11-01T00:51:12.257Z,6.32
2023-11-01T00:54:14.400Z,4.20
2023-11-01T00:57:16.513Z,4.80
2023-11-01T01:00:18.769Z,4.70
2023-11-01T01:03:21.373Z,5.60
2023-11-01T01:06:23.479Z,4.40
2023-11-01T01:09:25.558Z,5.55
2023-11-01T01:12:28.159Z,5.68
2023-11-01T01:15:30.696Z,6.47
2023-11-01T01:18:32.867Z,5.95
2023-11-01T01:21:35.454Z,4.78
2023-11-01T01:24:37.564Z,4.43
2023-11-01T01:27:42.506Z,4.88
2023-11-01T01:30:44.871Z,6.78
2023-11-01T01:33:46.941Z,4.20
2023-11-01T01:36:49.154Z,2.70
2023-11-01T01:39:51.336Z,4.70
2023-11-01T01:42:53.560Z,4.45
2023-11-01T01:46:04.196Z,2.80
2023-11-01T01:49:06.863Z,2.75
2023-11-01T01:52:08.947Z,2.78
2023-11-01T01:55:12.192Z,4.27
2023-11-01T01:58:14.402Z,2.92
2023-11-01T02:01:17.005Z,4.10
2023-11-01T02:04:19.038Z,3.45
2023-11-01T02:07:21.322Z,7.32
2023-11-01T02:10:24.581Z,4.57
2023-11-01T02:13:26.900Z,2.45
2023-11-01T02:16:29.349Z,4.20
2023-11-01T02:19:31.917Z,3.80
2023-11-01T02:22:34.159Z,4.47
2023-11-01T02:25:36.743Z,4.00
2023-11-01T02:28:38.913Z,5.45
2023-11-01T02:31:42.919Z,4.70
2023-11-01T02:34:45.033Z,5.10
2023-11-01T02:37:49.255Z,4.60
2023-11-01T02:40:51.840Z,2.95
2023-11-01T02:43:54.545Z,3.50
2023-11-01T02:46:56.689Z,4.10
2023-11-01T02:49:59.276Z,3.25
2023-11-01T02:53:01.912Z,4.57
2023-11-01T02:56:04.408Z,3.35
2023-11-01T02:59:06.876Z,3.28
2023-11-01T03:02:09.073Z,2.85
2023-11-01T03:05:11.417Z,3.40
2023-11-01T03:08:14.083Z,2.70
2023-11-01T03:11:16.208Z,2.58
2023-11-01T03:14:18.247Z,3.78
2023-11-01T03:17:21.018Z,3.53
2023-11-01T03:20:23.736Z,3.25
2023-11-01T03:23:26.311Z,2.33
2023-11-01T03:26:28.488Z,4.50
2023-11-01T03:29:31.744Z,5.10
2023-11-01T03:32:34.526Z,4.75
2023-11-01T03:35:36.719Z,4.22
2023-11-01T03:38:40.122Z,3.40
2023-11-01T03:41:42.647Z,2.47
2023-11-01T03:44:45.726Z,3.22
2023-11-01T03:47:48.096Z,4.03
2023-11-01T03:50:50.302Z,4.68
2023-11-01T03:53:52.865Z,2.70
2023-11-01T03:56:55.193Z,3.60
2023-11-01T03:59:57.863Z,2.77
2023-11-01T04:03:00.643Z,3.08
2023-11-01T04:06:03.020Z,4.72
2023-11-01T04:09:05.554Z,3.58
2023-11-01T04:12:07.935Z,3.03
2023-11-01T04:15:12.167Z,4.00
2023-11-01T04:18:14.831Z,2.60
2023-11-01T04:21:17.056Z,3.47
2023-11-01T04:24:20.630Z,7.95
2023-11-01T04:27:23.872Z,6.68
2023-11-01T04:30:26.486Z,5.25
2023-11-01T04:33:28.725Z,5.43
2023-11-01T04:36:30.863Z,4.78
2023-11-01T04:39:32.980Z,6.05
2023-11-01T04:42:37.477Z,4.77
2023-11-01T04:45:39.990Z,4.25
2023-11-01T04:48:42.026Z,5.45
2023-11-01T04:51:45.056Z,6.83
2023-11-01T04:54:47.619Z,3.95
2023-11-01T04:57:50.251Z,3.35
2023-11-01T05:00:52.681Z,3.60
2023-11-01T05:03:54.770Z,3.55
2023-11-01T05:06:56.856Z,4.15
2023-11-01T05:09:59.630Z,5.05
2023-11-01T05:13:01.782Z,4.80
2023-11-01T05:16:04.109Z,4.28
2023-11-01T05:19:10.063Z,6.40
2023-11-01T05:22:12.837Z,6.53
2023-11-01T05:25:15.426Z,4.95
2023-11-01T05:28:18.034Z,3.95
2023-11-01T05:31:20.326Z,4.30
2023-11-01T05:34:22.716Z,4.15
2023-11-01T05:37:24.833Z,4.57
2023-11-01T05:40:26.938Z,5.35
2023-11-01T05:43:29.005Z,4.70
2023-11-01T05:46:31.534Z,5.78
2023-11-01T05:49:33.684Z,4.68
2023-11-01T05:52:35.867Z,5.63
2023-11-01T05:55:54.470Z,5.60
2023-11-01T05:59:03.180Z,11.50
2023-11-01T06:02:06.466Z,9.32
2023-11-01T06:05:08.769Z,4.82
2023-11-01T06:08:11.422Z,6.65
2023-11-01T06:11:13.900Z,9.43
2023-11-01T06:14:16.521Z,8.00
2023-11-01T06:17:50.536Z,18.23
2023-11-01T06:20:53.203Z,16.25
2023-11-01T06:24:07.698Z,11.63
2023-11-01T06:27:10.238Z,6.78
2023-11-01T06:30:14.882Z,7.95
2023-11-01T06:33:35.757Z,7.38
2023-11-01T06:36:38.456Z,6.43
2023-11-01T06:39:40.562Z,6.63
2023-11-01T06:42:42.690Z,6.40
2023-11-01T06:45:45.061Z,5.70
2023-11-01T06:48:47.248Z,6.55
2023-11-01T06:51:49.371Z,5.30
2023-11-01T06:54:51.886Z,5.63
2023-11-01T06:57:54.872Z,5.13
2023-11-01T07:00:56.958Z,4.00
2023-11-01T07:03:59.591Z,23.98
2023-11-01T07:07:02.017Z,26.60
2023-11-01T07:10:04.193Z,5.75
2023-11-01T07:13:06.330Z,5.13
2023-11-01T07:16:08.531Z,3.80
2023-11-01T07:19:10.708Z,3.57
2023-11-01T07:22:13.360Z,3.03
2023-11-01T07:25:15.610Z,5.05
2023-11-01T07:28:17.697Z,2.67
2023-11-01T07:31:20.239Z,3.22
2023-11-01T07:34:22.298Z,2.10
2023-11-01T07:37:25.579Z,3.95
2023-11-01T07:40:28.256Z,3.65
2023-11-01T07:43:30.385Z,2.97
2023-11-01T07:46:32.839Z,2.37
2023-11-01T07:49:35.358Z,2.20
2023-11-01T07:52:37.491Z,2.63
2023-11-01T07:55:39.532Z,2.40
2023-11-01T07:58:41.632Z,2.30
2023-11-01T08:01:45.159Z,2.10
2023-11-01T08:04:47.924Z,3.63
2023-11-01T08:07:50.922Z,2.53
2023-11-01T08:10:53.111Z,2.30
2023-11-01T08:13:55.306Z,3.25
2023-11-01T08:16:57.532Z,2.20
2023-11-01T08:20:02.082Z,2.93
2023-11-01T08:23:05.069Z,7.90
2023-11-01T08:26:07.287Z,1.98
2023-11-01T08:29:11.166Z,1.77
2023-11-01T08:32:13.443Z,4.67
2023-11-01T08:35:15.995Z,1.88
2023-11-01T08:38:18.048Z,2.00
2023-11-01T08:41:20.556Z,2.30
2023-11-01T08:44:22.740Z,2.10
2023-11-01T08:47:37.626Z,2.03
2023-11-01T08:50:40.032Z,1.85
2023-11-01T08:53:42.621Z,1.58
2023-11-01T08:56:45.261Z,3.90
2023-11-01T08:59:47.534Z,3.03
2023-11-01T09:02:50.494Z,2.57
2023-11-01T09:05:53.530Z,2.00
2023-11-01T09:08:55.595Z,3.15
2023-11-01T09:11:57.849Z,2.40
2023-11-01T09:15:00.481Z,2.17
2023-11-01T09:18:02.803Z,3.03
2023-11-01T09:21:05.207Z,2.42
2023-11-01T09:24:07.657Z,2.38
2023-11-01T09:27:10.245Z,2.08
2023-11-01T09:30:12.674Z,2.20
2023-11-01T09:33:14.863Z,1.60
2023-11-01T09:36:17.499Z,1.73
2023-11-01T09:39:19.747Z,3.85
2023-11-01T09:42:22.024Z,3.25
2023-11-01T09:45:24.577Z,2.33
2023-11-01T09:48:26.683Z,2.00
2023-11-01T09:51:30.192Z,1.95
2023-11-01T09:54:33.081Z,3.25
2023-11-01T09:57:35.840Z,2.47
2023-11-01T10:00:38.287Z,2.28
2023-11-01T10:03:40.630Z,2.23
2023-11-01T10:06:45.423Z,2.75
2023-11-01T10:09:48.634Z,2.05
2023-11-01T10:12:51.191Z,3.17
2023-11-01T10:15:53.473Z,1.63
2023-11-01T10:18:56.005Z,1.83
2023-11-01T10:21:58.889Z,1.17
2023-11-01T10:25:00.972Z,1.52
2023-11-01T10:28:03.027Z,2.03
2023-11-01T10:31:05.570Z,2.28
2023-11-01T10:34:13.527Z,1.20
2023-11-01T10:37:15.727Z,1.50
2023-11-01T10:40:18.071Z,1.05
2023-11-01T10:43:20.604Z,1.73
2023-11-01T10:46:23.099Z,2.00
2023-11-01T10:49:25.555Z,1.53
2023-11-01T10:52:28.263Z,1.48
2023-11-01T10:55:31.013Z,1.33
2023-11-01T10:58:34.656Z,2.67
2023-11-01T11:01:43.082Z,2.67
2023-11-01T11:05:06.961Z,1.97
2023-11-01T11:08:12.663Z,2.25
2023-11-01T11:11:18.660Z,4.55
2023-11-01T11:14:40.149Z,1.60
2023-11-01T11:17:55.996Z,1.10
2023-11-01T11:21:00.023Z,1.13
2023-11-01T11:24:02.670Z,1.10
2023-11-01T11:27:04.784Z,1.55
2023-11-01T11:30:08.849Z,1.13
2023-11-01T11:33:11.439Z,3.17
2023-11-01T11:36:16.124Z,1.53
2023-11-01T11:39:18.534Z,1.73
2023-11-01T11:42:39.883Z,0.95
2023-11-01T11:45:42.314Z,1.70
2023-11-01T11:48:44.774Z,1.52
2023-11-01T11:51:51.092Z,0.70
2023-11-01T11:54:54.328Z,1.27
2023-11-01T11:57:56.488Z,2.83
2023-11-01T12:00:58.504Z,0.68
2023-11-01T12:04:01.106Z,1.10
2023-11-01T12:07:03.574Z,1.90
2023-11-01T12:10:06.117Z,0.70
2023-11-01T12:13:08.263Z,1.45
2023-11-01T12:16:10.674Z,0.55
2023-11-01T12:19:17.936Z,0.95
2023-11-01T12:22:20.257Z,0.80
2023-11-01T12:25:25.844Z,1.77
2023-11-01T12:28:27.848Z,0.40
2023-11-01T12:31:29.896Z,0.93
2023-11-01T12:34:32.933Z,0.43
2023-11-01T12:37:35.835Z,1.13
2023-11-01T12:40:39.269Z,0.75
2023-11-01T12:43:49.702Z,1.02
2023-11-01T12:46:51.905Z,0.52
2023-11-01T12:49:54.898Z,0.68
2023-11-01T12:52:57.425Z,0.43
2023-11-01T12:55:59.583Z,0.40
2023-11-01T12:59:01.650Z,1.75
2023-11-01T13:02:04.732Z,1.33
2023-11-01T13:05:07.069Z,0.60
2023-11-01T13:08:09.371Z,0.77
2023-11-01T13:11:11.888Z,1.27
2023-11-01T13:14:14.395Z,1.27
2023-11-01T13:17:16.949Z,0.47
2023-11-01T13:20:19.172Z,0.70
2023-11-01T13:23:21.361Z,1.67
2023-11-01T13:26:23.560Z,0.77
2023-11-01T13:29:26.096Z,0.43
2023-11-01T13:32:28.308Z,1.23
2023-11-01T13:35:30.928Z,1.10
2023-11-01T13:38:32.984Z,0.60
2023-11-01T13:41:35.610Z,0.60
2023-11-01T13:44:38.179Z,1.67
2023-11-01T13:47:40.433Z,1.27
2023-11-01T13:50:43.252Z,1.15
2023-11-01T13:53:46.957Z,1.33
2023-11-01T13:56:49.202Z,1.17
2023-11-01T13:59:51.516Z,0.75
2023-11-01T14:02:53.939Z,2.10
2023-11-01T14:05:56.261Z,1.15
2023-11-01T14:08:58.804Z,0.50
2023-11-01T14:12:03.831Z,1.10
2023-11-01T14:15:06.396Z,0.65
2023-11-01T14:18:09.098Z,0.75
2023-11-01T14:21:11.774Z,1.05
2023-11-01T14:24:18.083Z,0.77
2023-11-01T14:27:23.506Z,1.65
2023-11-01T14:30:25.924Z,0.90
2023-11-01T14:33:28.184Z,0.70
2023-11-01T14:36:30.447Z,1.80
2023-11-01T14:39:32.483Z,0.40
2023-11-01T14:42:34.871Z,1.30
2023-11-01T14:45:36.916Z,0.63
2023-11-01T14:48:39.322Z,1.83
2023-11-01T14:51:41.747Z,0.60
2023-11-01T14:54:43.887Z,0.70
2023-11-01T14:57:46.275Z,2.22
2023-11-01T15:00:49.110Z,1.33
2023-11-01T15:03:51.479Z,1.08
2023-11-01T15:06:53.926Z,1.35
2023-11-01T15:09:56.153Z,4.03
2023-11-01T15:12:58.595Z,1.30
2023-11-01T15:16:01.668Z,3.08
2023-11-01T15:19:04.360Z,4.53
2023-11-01T15:22:07.017Z,4.68
2023-11-01T15:25:09.341Z,4.10
2023-11-01T15:28:12.030Z,3.53
2023-11-01T15:31:14.488Z,3.28
2023-11-01T15:34:16.725Z,2.58
2023-11-01T15:37:21.362Z,2.33
2023-11-01T15:40:24.732Z,6.53
2023-11-01T15:43:26.806Z,11.40
2023-11-01T15:46:29.384Z,7.43
2023-11-01T15:49:31.422Z,7.53
2023-11-01T15:52:34.626Z,14.77
2023-11-01T15:55:37.157Z,9.80
2023-11-01T15:58:40.066Z,10.55
2023-11-01T16:01:42.113Z,9.60
2023-11-01T16:04:44.457Z,10.15
2023-11-01T16:07:47.402Z,13.88
2023-11-01T16:10:50.176Z,10.93
2023-11-01T16:13:52.280Z,14.07
2023-11-01T16:16:54.419Z,13.73
2023-11-01T16:19:59.432Z,14.13
2023-11-01T16:23:02.877Z,13.23
2023-11-01T16:26:05.120Z,15.13
2023-11-01T16:29:07.724Z,14.40
2023-11-01T16:32:10.143Z,24.67
2023-11-01T16:35:12.894Z,23.70
2023-11-01T16:38:14.884Z,21.58
2023-11-01T16:41:17.030Z,12.30
2023-11-01T16:44:19.342Z,6.78
2023-11-01T16:47:21.928Z,6.55
2023-11-01T16:50:24.052Z,6.72
2023-11-01T16:53:27.524Z,8.18
2023-11-01T16:56:29.999Z,8.40
2023-11-01T16:59:32.281Z,11.40
2023-11-01T17:02:45.228Z,10.10
2023-11-01T17:05:52.961Z,8.85
2023-11-01T17:08:55.043Z,16.23
2023-11-01T17:11:59.220Z,25.90
2023-11-01T17:15:02.031Z,29.48
2023-11-01T17:18:05.837Z,23.15
2023-11-01T17:21:08.866Z,14.52
2023-11-01T17:24:11.176Z,12.27
2023-11-01T17:27:13.290Z,13.70
2023-11-01T17:30:15.432Z,13.18
2023-11-01T17:33:22.937Z,15.35
2023-11-01T17:36:27.449Z,19.17
2023-11-01T17:39:30.896Z,15.20
2023-11-01T17:42:33.063Z,24.80
2023-11-01T17:45:35.563Z,17.60
2023-11-01T17:48:37.749Z,10.00
2023-11-01T17:51:40.462Z,5.97
2023-11-01T17:54:43.360Z,5.55
2023-11-01T17:57:48.158Z,3.03
2023-11-01T18:00:51.148Z,3.60
2023-11-01T18:03:59.785Z,3.33
2023-11-01T18:07:01.971Z,3.80
2023-11-01T18:10:04.752Z,5.53
2023-11-01T18:13:25.924Z,4.30
2023-11-01T18:16:30.557Z,3.75
2023-11-01T18:19:33.222Z,6.55
2023-11-01T18:22:35.811Z,6.28
2023-11-01T18:25:50.064Z,4.47
2023-11-01T18:28:53.206Z,4.83
2023-11-01T18:31:55.632Z,4.20
2023-11-01T18:34:59.561Z,5.15
2023-11-01T18:38:02.107Z,3.60
2023-11-01T18:41:04.992Z,6.03
2023-11-01T18:44:19.102Z,5.23
2023-11-01T18:47:21.477Z,5.57
2023-11-01T18:50:23.905Z,4.18
2023-11-01T18:53:31.783Z,5.13
2023-11-01T18:56:41.454Z,4.77
2023-11-01T18:59:43.817Z,5.83
2023-11-01T19:02:55.415Z,3.90
2023-11-01T19:05:58.329Z,4.13
2023-11-01T19:09:00.632Z,6.63
2023-11-01T19:12:02.818Z,5.00
2023-11-01T19:15:08.971Z,3.72
2023-11-01T19:18:16.949Z,5.75
2023-11-01T19:21:25.715Z,4.25
2023-11-01T19:24:28.198Z,5.28
2023-11-01T19:27:30.304Z,3.20
2023-11-01T19:30:33.060Z,4.05
2023-11-01T19:33:35.372Z,3.50
2023-11-01T19:36:39.771Z,3.60
2023-11-01T19:39:42.061Z,6.47
2023-11-01T19:42:44.140Z,4.28
2023-11-01T19:45:46.355Z,6.10
2023-11-01T19:48:48.997Z,4.65
2023-11-01T19:51:51.168Z,5.80
2023-11-01T19:54:53.628Z,4.13
2023-11-01T19:57:55.798Z,3.53
2023-11-01T20:00:57.849Z,3.95
2023-11-01T20:04:00.646Z,3.70
2023-11-01T20:07:03.291Z,5.17
2023-11-01T20:10:15.128Z,5.83
2023-11-01T20:13:17.729Z,3.65
2023-11-01T20:16:25.649Z,4.85
2023-11-01T20:19:32.585Z,4.25
2023-11-01T20:22:39.986Z,4.57
2023-11-01T20:25:42.182Z,3.65
2023-11-01T20:28:44.822Z,4.00
2023-11-01T20:31:47.039Z,4.75
2023-11-01T20:34:49.680Z,5.40
2023-11-01T20:37:51.714Z,3.05
2023-11-01T20:40:53.716Z,3.88
2023-11-01T20:43:56.242Z,3.83
2023-11-01T20:46:59.062Z,4.65
2023-11-01T20:50:02.420Z,5.13
2023-11-01T20:53:04.530Z,5.03
2023-11-01T20:56:06.899Z,5.53
2023-11-01T20:59:10.040Z,4.33
2023-11-01T21:02:12.600Z,4.63
2023-11-01T21:05:15.254Z,4.70
2023-11-01T21:08:17.414Z,6.03
2023-11-01T21:11:20.710Z,6.57
2023-11-01T21:14:23.229Z,6.10
2023-11-01T21:17:26.271Z,6.93
2023-11-01T21:20:28.508Z,5.28
2023-11-01T21:23:31.089Z,5.37
2023-11-01T21:26:33.565Z,5.80
2023-11-01T21:29:36.055Z,7.38
2023-11-01T21:32:38.488Z,8.45
2023-11-01T21:35:40.584Z,6.83
2023-11-01T21:38:42.972Z,9.07
2023-11-01T21:41:45.361Z,7.20
2023-11-01T21:44:47.739Z,7.25
2023-11-01T21:47:50.332Z,7.90
2023-11-01T21:50:56.366Z,9.80
2023-11-01T21:53:58.529Z,7.10
2023-11-01T21:57:00.877Z,5.88
2023-11-01T22:00:06.270Z,6.33
2023-11-01T22:03:14.681Z,6.85
2023-11-01T22:06:17.723Z,8.13
2023-11-01T22:09:20.235Z,5.75
2023-11-01T22:12:22.352Z,6.67
2023-11-01T22:15:24.647Z,5.60
2023-11-01T22:18:27.078Z,5.82
2023-11-01T22:21:33.764Z,13.27
2023-11-01T22:24:37.367Z,4.38
2023-11-01T22:27:41.208Z,4.13
2023-11-01T22:30:43.654Z,7.32
2023-11-01T22:33:45.817Z,7.45
2023-11-01T22:36:48.770Z,4.57
2023-11-01T22:39:53.615Z,4.97
2023-11-01T22:42:55.700Z,4.90
2023-11-01T22:45:58.737Z,5.78
2023-11-01T22:49:01.367Z,5.63
2023-11-01T22:52:04.346Z,7.30
2023-11-01T22:55:06.935Z,6.30
2023-11-01T22:58:09.511Z,7.18
2023-11-01T23:01:11.675Z,6.93
2023-11-01T23:04:14.531Z,5.65
2023-11-01T23:07:16.615Z,4.85
2023-11-01T23:10:18.659Z,4.70
2023-11-01T23:13:20.851Z,9.27
2023-11-01T23:16:23.096Z,9.60
2023-11-01T23:19:25.093Z,5.88
2023-11-01T23:22:27.270Z,5.68
2023-11-01T23:25:32.674Z,4.40
2023-11-01T23:28:38.131Z,6.40
2023-11-01T23:31:45.002Z,5.97
2023-11-01T23:34:49.323Z,5.53
2023-11-01T23:37:51.685Z,6.83
2023-11-01T23:40:54.121Z,4.43
2023-11-01T23:43:59.689Z,7.03
2023-11-01T23:47:02.679Z,4.95
2023-11-01T23:50:06.682Z,4.73
2023-11-01T23:53:12.459Z,6.07
2023-11-01T23:56:20.744Z,4.57
2023-11-01T23:59:23.142Z,4.38
